sensor_id;sensor_type;location;lat;lon;timestamp;temperature;humidity
46976;DHT22;32724;51.094;6.996;2023-07-20T00:00:59;16.30;99.90
46976;DHT22;32724;51.094;6.996;2023-07-20T00:03:25;16.20;99.90
46976;DHT22;32724;51.094;6.996;2023-07-20T00:05:50;16.20;99.90
46976;DHT22;32724;51.094;6.996;2023-07-20T00:08:17;16.20;99.90
46976;DHT22;32724;51.094;6.996;2023-07-20T00:10:42;16.20;99.90
46976;DHT22;32724;51.094;6.996;2023-07-20T00:13:08;16.20;99.90
46976;DHT22;32724;51.094;6.996;2023-07-20T00:15:34;16.30;99.90
46976;DHT22;32724;51.094;6.996;2023-07-20T00:17:59;16.30;99.90
46976;DHT22;32724;51.094;6.996;2023-07-20T00:20:25;16.30;99.90
46976;DHT22;32724;51.094;6.996;2023-07-20T00:22:51;16.30;99.90
46976;DHT22;32724;51.094;6.996;2023-07-20T00:25:16;16.30;99.90
46976;DHT22;32724;51.094;6.996;2023-07-20T00:27:42;16.30;99.90
46976;DHT22;32724;51.094;6.996;2023-07-20T00:30:08;16.20;99.90
46976;DHT22;32724;51.094;6.996;2023-07-20T00:32:33;16.10;99.90
46976;DHT22;32724;51.094;6.996;2023-07-20T00:34:59;16.10;99.90
46976;DHT22;32724;51.094;6.996;2023-07-20T00:37:24;16.10;99.90
46976;DHT22;32724;51.094;6.996;2023-07-20T00:39:50;16.10;99.90
46976;DHT22;32724;51.094;6.996;2023-07-20T00:42:16;16.10;99.90
46976;DHT22;32724;51.094;6.996;2023-07-20T00:44:41;16.20;99.90
46976;DHT22;32724;51.094;6.996;2023-07-20T00:47:07;16.10;99.90
46976;DHT22;32724;51.094;6.996;2023-07-20T00:49:32;16.20;99.90
46976;DHT22;32724;51.094;6.996;2023-07-20T00:51:59;16.20;99.90
46976;DHT22;32724;51.094;6.996;2023-07-20T00:54:25;16.20;99.90
46976;DHT22;32724;51.094;6.996;2023-07-20T00:56:51;16.20;99.90
46976;DHT22;32724;51.094;6.996;2023-07-20T00:59:17;16.30;99.90
46976;DHT22;32724;51.094;6.996;2023-07-20T01:01:43;16.30;99.90
46976;DHT22;32724;51.094;6.996;2023-07-20T01:04:08;16.30;99.90
46976;DHT22;32724;51.094;6.996;2023-07-20T01:09:27;16.30;99.90
46976;DHT22;32724;51.094;6.996;2023-07-20T01:11:54;16.40;99.90
46976;DHT22;32724;51.094;6.996;2023-07-20T01:14:23;16.40;99.90
46976;DHT22;32724;51.094;6.996;2023-07-20T01:16:49;16.40;99.90
46976;DHT22;32724;51.094;6.996;2023-07-20T01:19:17;16.50;99.90
46976;DHT22;32724;51.094;6.996;2023-07-20T01:24:30;16.50;99.90
46976;DHT22;32724;51.094;6.996;2023-07-20T01:27:05;16.50;99.90
46976;DHT22;32724;51.094;6.996;2023-07-20T01:32:03;16.50;99.90
46976;DHT22;32724;51.094;6.996;2023-07-20T01:34:29;16.50;99.90
46976;DHT22;32724;51.094;6.996;2023-07-20T01:36:55;16.50;99.90
46976;DHT22;32724;51.094;6.996;2023-07-20T01:39:21;16.50;99.90
46976;DHT22;32724;51.094;6.996;2023-07-20T01:41:47;16.50;99.90
46976;DHT22;32724;51.094;6.996;2023-07-20T01:44:12;16.60;99.90
46976;DHT22;32724;51.094;6.996;2023-07-20T01:46:38;16.70;99.90
46976;DHT22;32724;51.094;6.996;2023-07-20T01:49:03;16.70;99.90
46976;DHT22;32724;51.094;6.996;2023-07-20T01:51:29;16.80;99.90
46976;DHT22;32724;51.094;6.996;2023-07-20T01:53:54;16.90;99.90
46976;DHT22;32724;51.094;6.996;2023-07-20T01:56:20;16.90;99.90
46976;DHT22;32724;51.094;6.996;2023-07-20T01:58:45;16.80;99.90
46976;DHT22;32724;51.094;6.996;2023-07-20T02:01:11;16.90;99.90
46976;DHT22;32724;51.094;6.996;2023-07-20T02:03:36;16.90;99.90
46976;DHT22;32724;51.094;6.996;2023-07-20T02:06:02;16.90;99.90
46976;DHT22;32724;51.094;6.996;2023-07-20T02:08:27;16.80;99.90
46976;DHT22;32724;51.094;6.996;2023-07-20T02:10:53;16.80;99.90
46976;DHT22;32724;51.094;6.996;2023-07-20T02:13:18;16.80;99.90
46976;DHT22;32724;51.094;6.996;2023-07-20T02:15:44;16.80;99.90
46976;DHT22;32724;51.094;6.996;2023-07-20T02:18:09;16.80;99.90
46976;DHT22;32724;51.094;6.996;2023-07-20T02:20:35;16.90;99.90
46976;DHT22;32724;51.094;6.996;2023-07-20T02:23:01;16.90;99.90
46976;DHT22;32724;51.094;6.996;2023-07-20T02:25:26;16.80;99.90
46976;DHT22;32724;51.094;6.996;2023-07-20T02:27:52;16.70;99.90
46976;DHT22;32724;51.094;6.996;2023-07-20T02:30:17;16.60;99.90
46976;DHT22;32724;51.094;6.996;2023-07-20T02:32:43;16.50;99.90
46976;DHT22;32724;51.094;6.996;2023-07-20T02:35:14;16.40;99.90
46976;DHT22;32724;51.094;6.996;2023-07-20T02:37:40;16.20;99.90
46976;DHT22;32724;51.094;6.996;2023-07-20T02:40:05;16.20;99.90
46976;DHT22;32724;51.094;6.996;2023-07-20T02:42:32;16.00;99.90
46976;DHT22;32724;51.094;6.996;2023-07-20T02:44:58;16.00;99.90
46976;DHT22;32724;51.094;6.996;2023-07-20T02:47:23;15.90;99.90
46976;DHT22;32724;51.094;6.996;2023-07-20T02:49:49;15.80;99.90
46976;DHT22;32724;51.094;6.996;2023-07-20T02:52:14;15.80;99.90
46976;DHT22;32724;51.094;6.996;2023-07-20T02:54:40;15.80;99.90
46976;DHT22;32724;51.094;6.996;2023-07-20T02:57:05;15.90;99.90
46976;DHT22;32724;51.094;6.996;2023-07-20T02:59:31;15.90;99.90
46976;DHT22;32724;51.094;6.996;2023-07-20T03:01:56;15.90;99.90
46976;DHT22;32724;51.094;6.996;2023-07-20T03:04:23;15.90;99.90
46976;DHT22;32724;51.094;6.996;2023-07-20T03:06:48;15.90;99.90
46976;DHT22;32724;51.094;6.996;2023-07-20T03:09:14;15.90;99.90
46976;DHT22;32724;51.094;6.996;2023-07-20T03:11:40;15.90;99.90
46976;DHT22;32724;51.094;6.996;2023-07-20T03:14:06;15.90;99.90
46976;DHT22;32724;51.094;6.996;2023-07-20T03:16:31;16.00;99.90
46976;DHT22;32724;51.094;6.996;2023-07-20T03:18:58;16.10;99.90
46976;DHT22;32724;51.094;6.996;2023-07-20T03:21:24;16.10;99.90
46976;DHT22;32724;51.094;6.996;2023-07-20T03:23:50;16.10;99.90
46976;DHT22;32724;51.094;6.996;2023-07-20T03:26:15;16.10;99.90
46976;DHT22;32724;51.094;6.996;2023-07-20T03:28:40;16.10;99.90
46976;DHT22;32724;51.094;6.996;2023-07-20T03:31:06;16.10;99.90
46976;DHT22;32724;51.094;6.996;2023-07-20T03:33:31;16.10;99.90
46976;DHT22;32724;51.094;6.996;2023-07-20T03:35:57;16.10;99.90
46976;DHT22;32724;51.094;6.996;2023-07-20T03:38:23;16.10;99.90
46976;DHT22;32724;51.094;6.996;2023-07-20T03:40:52;16.10;99.90
46976;DHT22;32724;51.094;6.996;2023-07-20T03:43:18;16.20;99.90
46976;DHT22;32724;51.094;6.996;2023-07-20T03:45:44;16.30;99.90
46976;DHT22;32724;51.094;6.996;2023-07-20T03:48:11;16.30;99.90
46976;DHT22;32724;51.094;6.996;2023-07-20T03:50:36;16.40;99.90
46976;DHT22;32724;51.094;6.996;2023-07-20T03:53:02;16.40;99.90
46976;DHT22;32724;51.094;6.996;2023-07-20T03:55:27;16.50;99.90
46976;DHT22;32724;51.094;6.996;2023-07-20T03:57:53;16.50;99.90
46976;DHT22;32724;51.094;6.996;2023-07-20T04:00:18;16.60;99.90
46976;DHT22;32724;51.094;6.996;2023-07-20T04:02:44;16.60;99.90
46976;DHT22;32724;51.094;6.996;2023-07-20T04:05:09;16.60;99.90
46976;DHT22;32724;51.094;6.996;2023-07-20T04:07:35;16.70;99.90
46976;DHT22;32724;51.094;6.996;2023-07-20T04:10:00;16.70;99.90
46976;DHT22;32724;51.094;6.996;2023-07-20T04:12:26;16.70;99.90
46976;DHT22;32724;51.094;6.996;2023-07-20T04:14:51;16.70;99.90
46976;DHT22;32724;51.094;6.996;2023-07-20T04:17:17;16.70;99.90
46976;DHT22;32724;51.094;6.996;2023-07-20T04:19:43;16.70;99.90
46976;DHT22;32724;51.094;6.996;2023-07-20T04:22:08;16.70;99.90
46976;DHT22;32724;51.094;6.996;2023-07-20T04:24:34;16.80;99.90
46976;DHT22;32724;51.094;6.996;2023-07-20T04:26:59;16.80;99.90
46976;DHT22;32724;51.094;6.996;2023-07-20T04:29:25;16.80;99.90
46976;DHT22;32724;51.094;6.996;2023-07-20T04:31:50;16.80;99.90
46976;DHT22;32724;51.094;6.996;2023-07-20T04:34:16;16.80;99.90
46976;DHT22;32724;51.094;6.996;2023-07-20T04:36:41;16.80;99.90
46976;DHT22;32724;51.094;6.996;2023-07-20T04:39:07;16.70;99.90
46976;DHT22;32724;51.094;6.996;2023-07-20T04:41:33;16.70;99.90
46976;DHT22;32724;51.094;6.996;2023-07-20T04:43:59;16.80;99.90
46976;DHT22;32724;51.094;6.996;2023-07-20T04:46:25;16.80;99.90
46976;DHT22;32724;51.094;6.996;2023-07-20T04:48:50;17.00;99.90
46976;DHT22;32724;51.094;6.996;2023-07-20T04:51:15;17.10;99.90
46976;DHT22;32724;51.094;6.996;2023-07-20T04:53:43;17.10;99.90
46976;DHT22;32724;51.094;6.996;2023-07-20T04:56:08;17.20;99.90
46976;DHT22;32724;51.094;6.996;2023-07-20T04:58:34;17.10;99.90
46976;DHT22;32724;51.094;6.996;2023-07-20T05:00:59;17.00;99.90
46976;DHT22;32724;51.094;6.996;2023-07-20T05:03:24;17.00;99.90
46976;DHT22;32724;51.094;6.996;2023-07-20T05:05:52;17.00;99.90
46976;DHT22;32724;51.094;6.996;2023-07-20T05:08:17;17.00;99.90
46976;DHT22;32724;51.094;6.996;2023-07-20T05:10:42;17.00;99.90
46976;DHT22;32724;51.094;6.996;2023-07-20T05:13:08;17.00;99.90
46976;DHT22;32724;51.094;6.996;2023-07-20T05:15:33;17.00;99.90
46976;DHT22;32724;51.094;6.996;2023-07-20T05:18:00;17.10;99.90
46976;DHT22;32724;51.094;6.996;2023-07-20T05:20:25;17.10;99.90
46976;DHT22;32724;51.094;6.996;2023-07-20T05:22:51;17.10;99.90
46976;DHT22;32724;51.094;6.996;2023-07-20T05:25:18;17.20;99.90
46976;DHT22;32724;51.094;6.996;2023-07-20T05:27:44;17.20;99.90
46976;DHT22;32724;51.094;6.996;2023-07-20T05:30:09;17.20;99.90
46976;DHT22;32724;51.094;6.996;2023-07-20T05:32:35;17.40;99.90
46976;DHT22;32724;51.094;6.996;2023-07-20T05:35:01;17.40;99.90
46976;DHT22;32724;51.094;6.996;2023-07-20T05:37:26;17.40;99.90
46976;DHT22;32724;51.094;6.996;2023-07-20T05:39:52;17.50;99.90
46976;DHT22;32724;51.094;6.996;2023-07-20T05:42:17;17.70;99.90
46976;DHT22;32724;51.094;6.996;2023-07-20T05:44:43;18.20;99.90
46976;DHT22;32724;51.094;6.996;2023-07-20T05:47:08;18.70;99.90
46976;DHT22;32724;51.094;6.996;2023-07-20T05:49:34;18.70;99.90
46976;DHT22;32724;51.094;6.996;2023-07-20T05:51:59;18.60;99.90
46976;DHT22;32724;51.094;6.996;2023-07-20T05:54:26;18.30;99.90
46976;DHT22;32724;51.094;6.996;2023-07-20T05:56:51;18.10;99.90
46976;DHT22;32724;51.094;6.996;2023-07-20T05:59:17;18.10;99.90
46976;DHT22;32724;51.094;6.996;2023-07-20T06:01:43;17.90;99.90
46976;DHT22;32724;51.094;6.996;2023-07-20T06:04:08;17.80;99.90
46976;DHT22;32724;51.094;6.996;2023-07-20T06:06:34;17.70;99.90
46976;DHT22;32724;51.094;6.996;2023-07-20T06:09:00;17.60;99.90
46976;DHT22;32724;51.094;6.996;2023-07-20T06:11:29;17.60;99.90
46976;DHT22;32724;51.094;6.996;2023-07-20T06:13:56;17.70;99.90
46976;DHT22;32724;51.094;6.996;2023-07-20T06:16:21;17.90;99.90
46976;DHT22;32724;51.094;6.996;2023-07-20T06:18:47;18.10;99.90
46976;DHT22;32724;51.094;6.996;2023-07-20T06:21:12;18.20;99.90
46976;DHT22;32724;51.094;6.996;2023-07-20T06:23:38;18.40;99.90
46976;DHT22;32724;51.094;6.996;2023-07-20T06:26:05;18.50;99.90
46976;DHT22;32724;51.094;6.996;2023-07-20T06:28:31;18.50;99.90
46976;DHT22;32724;51.094;6.996;2023-07-20T06:31:00;18.40;99.90
46976;DHT22;32724;51.094;6.996;2023-07-20T06:33:25;18.30;99.90
46976;DHT22;32724;51.094;6.996;2023-07-20T06:35:51;18.40;99.90
46976;DHT22;32724;51.094;6.996;2023-07-20T06:38:18;18.60;99.90
46976;DHT22;32724;51.094;6.996;2023-07-20T06:40:45;18.50;99.90
46976;DHT22;32724;51.094;6.996;2023-07-20T06:43:11;18.40;99.90
46976;DHT22;32724;51.094;6.996;2023-07-20T06:45:36;18.50;99.90
46976;DHT22;32724;51.094;6.996;2023-07-20T06:48:01;18.50;99.90
46976;DHT22;32724;51.094;6.996;2023-07-20T06:50:28;18.60;99.90
46976;DHT22;32724;51.094;6.996;2023-07-20T06:52:54;18.80;99.90
46976;DHT22;32724;51.094;6.996;2023-07-20T06:55:19;19.00;99.90
46976;DHT22;32724;51.094;6.996;2023-07-20T06:57:45;19.30;99.90
46976;DHT22;32724;51.094;6.996;2023-07-20T07:00:10;19.20;99.90
46976;DHT22;32724;51.094;6.996;2023-07-20T07:02:36;19.10;99.90
46976;DHT22;32724;51.094;6.996;2023-07-20T07:05:02;19.20;99.90
46976;DHT22;32724;51.094;6.996;2023-07-20T07:07:27;19.10;99.90
46976;DHT22;32724;51.094;6.996;2023-07-20T07:09:53;19.00;99.90
46976;DHT22;32724;51.094;6.996;2023-07-20T07:12:18;19.20;99.90
46976;DHT22;32724;51.094;6.996;2023-07-20T07:14:44;19.40;99.90
46976;DHT22;32724;51.094;6.996;2023-07-20T07:17:09;19.40;99.90
46976;DHT22;32724;51.094;6.996;2023-07-20T07:19:35;19.40;99.90
46976;DHT22;32724;51.094;6.996;2023-07-20T07:22:01;19.50;99.90
46976;DHT22;32724;51.094;6.996;2023-07-20T07:24:27;19.70;99.90
46976;DHT22;32724;51.094;6.996;2023-07-20T07:26:59;19.70;99.90
46976;DHT22;32724;51.094;6.996;2023-07-20T07:29:24;19.70;99.90
46976;DHT22;32724;51.094;6.996;2023-07-20T07:31:50;19.70;99.90
46976;DHT22;32724;51.094;6.996;2023-07-20T07:34:15;19.80;99.90
46976;DHT22;32724;51.094;6.996;2023-07-20T07:36:40;19.70;99.90
46976;DHT22;32724;51.094;6.996;2023-07-20T07:39:06;19.50;99.90
46976;DHT22;32724;51.094;6.996;2023-07-20T07:41:31;19.40;99.90
46976;DHT22;32724;51.094;6.996;2023-07-20T07:43:57;19.40;99.90
46976;DHT22;32724;51.094;6.996;2023-07-20T07:46:22;19.50;99.90
46976;DHT22;32724;51.094;6.996;2023-07-20T07:48:48;20.20;99.90
46976;DHT22;32724;51.094;6.996;2023-07-20T07:51:13;20.80;99.90
46976;DHT22;32724;51.094;6.996;2023-07-20T07:53:39;21.30;99.90
46976;DHT22;32724;51.094;6.996;2023-07-20T07:56:06;21.60;99.90
46976;DHT22;32724;51.094;6.996;2023-07-20T07:58:32;21.30;99.90
46976;DHT22;32724;51.094;6.996;2023-07-20T08:00:57;21.10;99.90
46976;DHT22;32724;51.094;6.996;2023-07-20T08:03:23;21.00;99.90
46976;DHT22;32724;51.094;6.996;2023-07-20T08:05:49;21.10;99.90
46976;DHT22;32724;51.094;6.996;2023-07-20T08:08:15;21.40;99.90
46976;DHT22;32724;51.094;6.996;2023-07-20T08:10:40;21.80;99.90
46976;DHT22;32724;51.094;6.996;2023-07-20T08:13:05;22.00;99.90
46976;DHT22;32724;51.094;6.996;2023-07-20T08:15:31;22.10;99.90
46976;DHT22;32724;51.094;6.996;2023-07-20T08:17:56;22.00;99.90
46976;DHT22;32724;51.094;6.996;2023-07-20T08:20:22;21.30;99.90
46976;DHT22;32724;51.094;6.996;2023-07-20T08:22:54;21.00;99.90
46976;DHT22;32724;51.094;6.996;2023-07-20T08:25:20;20.60;99.90
46976;DHT22;32724;51.094;6.996;2023-07-20T08:27:46;20.50;99.90
46976;DHT22;32724;51.094;6.996;2023-07-20T08:30:12;20.30;99.90
46976;DHT22;32724;51.094;6.996;2023-07-20T08:32:38;20.20;99.90
46976;DHT22;32724;51.094;6.996;2023-07-20T08:35:03;20.20;99.90
46976;DHT22;32724;51.094;6.996;2023-07-20T08:37:29;20.50;99.90
46976;DHT22;32724;51.094;6.996;2023-07-20T08:39:54;20.90;99.90
46976;DHT22;32724;51.094;6.996;2023-07-20T08:42:20;21.30;99.90
46976;DHT22;32724;51.094;6.996;2023-07-20T08:44:45;21.00;99.90
46976;DHT22;32724;51.094;6.996;2023-07-20T08:47:13;21.20;99.90
46976;DHT22;32724;51.094;6.996;2023-07-20T08:49:40;21.50;99.90
46976;DHT22;32724;51.094;6.996;2023-07-20T08:52:06;21.90;99.90
46976;DHT22;32724;51.094;6.996;2023-07-20T08:54:32;22.20;99.90
46976;DHT22;32724;51.094;6.996;2023-07-20T08:57:01;22.00;99.90
46976;DHT22;32724;51.094;6.996;2023-07-20T08:59:28;21.90;99.90
46976;DHT22;32724;51.094;6.996;2023-07-20T09:01:54;21.60;99.90
46976;DHT22;32724;51.094;6.996;2023-07-20T09:04:20;21.80;99.90
46976;DHT22;32724;51.094;6.996;2023-07-20T09:06:46;22.00;99.90
46976;DHT22;32724;51.094;6.996;2023-07-20T09:09:12;22.20;99.90
46976;DHT22;32724;51.094;6.996;2023-07-20T09:11:37;21.60;99.90
46976;DHT22;32724;51.094;6.996;2023-07-20T09:14:04;21.10;99.90
46976;DHT22;32724;51.094;6.996;2023-07-20T09:16:29;21.00;99.90
46976;DHT22;32724;51.094;6.996;2023-07-20T09:18:57;21.30;99.90
46976;DHT22;32724;51.094;6.996;2023-07-20T09:21:22;21.90;99.90
46976;DHT22;32724;51.094;6.996;2023-07-20T09:23:48;22.80;99.50
46976;DHT22;32724;51.094;6.996;2023-07-20T09:26:14;23.30;97.50
46976;DHT22;32724;51.094;6.996;2023-07-20T09:28:51;23.40;96.20
46976;DHT22;32724;51.094;6.996;2023-07-20T09:31:21;23.20;96.70
46976;DHT22;32724;51.094;6.996;2023-07-20T09:33:46;22.90;97.20
46976;DHT22;32724;51.094;6.996;2023-07-20T09:36:12;22.50;97.20
46976;DHT22;32724;51.094;6.996;2023-07-20T09:38:38;22.30;97.50
46976;DHT22;32724;51.094;6.996;2023-07-20T09:41:05;22.20;97.70
46976;DHT22;32724;51.094;6.996;2023-07-20T09:43:31;22.40;97.70
46976;DHT22;32724;51.094;6.996;2023-07-20T09:45:57;23.00;97.30
46976;DHT22;32724;51.094;6.996;2023-07-20T09:48:23;23.20;95.80
46976;DHT22;32724;51.094;6.996;2023-07-20T09:50:49;23.20;96.00
46976;DHT22;32724;51.094;6.996;2023-07-20T09:53:18;23.10;95.10
46976;DHT22;32724;51.094;6.996;2023-07-20T09:55:44;23.00;95.60
46976;DHT22;32724;51.094;6.996;2023-07-20T09:58:10;22.90;95.90
46976;DHT22;32724;51.094;6.996;2023-07-20T10:00:36;22.80;94.30
46976;DHT22;32724;51.094;6.996;2023-07-20T10:03:02;22.70;95.00
46976;DHT22;32724;51.094;6.996;2023-07-20T10:05:28;22.60;94.60
46976;DHT22;32724;51.094;6.996;2023-07-20T10:07:56;22.40;94.90
46976;DHT22;32724;51.094;6.996;2023-07-20T10:10:22;22.40;95.10
46976;DHT22;32724;51.094;6.996;2023-07-20T10:12:48;22.40;94.70
46976;DHT22;32724;51.094;6.996;2023-07-20T10:17:47;22.40;94.40
46976;DHT22;32724;51.094;6.996;2023-07-20T10:20:16;22.40;95.00
46976;DHT22;32724;51.094;6.996;2023-07-20T10:22:41;22.20;95.20
46976;DHT22;32724;51.094;6.996;2023-07-20T10:25:08;22.20;95.80
46976;DHT22;32724;51.094;6.996;2023-07-20T10:27:34;22.10;95.80
46976;DHT22;32724;51.094;6.996;2023-07-20T10:30:00;22.10;96.10
46976;DHT22;32724;51.094;6.996;2023-07-20T10:32:27;22.40;95.30
46976;DHT22;32724;51.094;6.996;2023-07-20T10:34:55;22.70;94.60
46976;DHT22;32724;51.094;6.996;2023-07-20T10:40:23;22.70;93.90
46976;DHT22;32724;51.094;6.996;2023-07-20T10:42:49;23.00;93.30
46976;DHT22;32724;51.094;6.996;2023-07-20T10:45:14;23.50;92.20
46976;DHT22;32724;51.094;6.996;2023-07-20T10:47:46;23.90;90.70
46976;DHT22;32724;51.094;6.996;2023-07-20T10:50:12;24.20;90.10
46976;DHT22;32724;51.094;6.996;2023-07-20T10:52:40;24.20;89.80
46976;DHT22;32724;51.094;6.996;2023-07-20T10:55:15;24.00;87.30
46976;DHT22;32724;51.094;6.996;2023-07-20T10:57:41;24.00;87.50
46976;DHT22;32724;51.094;6.996;2023-07-20T11:00:11;24.10;88.00
46976;DHT22;32724;51.094;6.996;2023-07-20T11:02:47;24.00;86.70
46976;DHT22;32724;51.094;6.996;2023-07-20T11:07:57;24.10;86.60
46976;DHT22;32724;51.094;6.996;2023-07-20T11:10:23;24.00;85.10
46976;DHT22;32724;51.094;6.996;2023-07-20T11:18:16;23.20;86.90
46976;DHT22;32724;51.094;6.996;2023-07-20T11:20:42;23.30;85.80
46976;DHT22;32724;51.094;6.996;2023-07-20T11:23:08;23.50;85.10
46976;DHT22;32724;51.094;6.996;2023-07-20T11:25:38;23.80;86.20
46976;DHT22;32724;51.094;6.996;2023-07-20T11:28:06;24.40;83.40
46976;DHT22;32724;51.094;6.996;2023-07-20T11:30:34;24.50;83.20
46976;DHT22;32724;51.094;6.996;2023-07-20T11:33:00;24.40;84.00
46976;DHT22;32724;51.094;6.996;2023-07-20T11:35:25;24.40;83.70
46976;DHT22;32724;51.094;6.996;2023-07-20T11:37:51;24.10;83.50
46976;DHT22;32724;51.094;6.996;2023-07-20T11:40:16;23.90;82.00
46976;DHT22;32724;51.094;6.996;2023-07-20T11:42:42;23.90;82.70
46976;DHT22;32724;51.094;6.996;2023-07-20T11:45:08;24.10;83.10
46976;DHT22;32724;51.094;6.996;2023-07-20T11:47:34;24.50;84.00
46976;DHT22;32724;51.094;6.996;2023-07-20T11:50:03;24.90;80.50
46976;DHT22;32724;51.094;6.996;2023-07-20T11:52:28;25.00;79.90
46976;DHT22;32724;51.094;6.996;2023-07-20T11:54:54;25.20;79.00
46976;DHT22;32724;51.094;6.996;2023-07-20T11:57:20;25.40;79.20
46976;DHT22;32724;51.094;6.996;2023-07-20T11:59:55;25.40;77.30
46976;DHT22;32724;51.094;6.996;2023-07-20T12:02:24;24.80;77.50
46976;DHT22;32724;51.094;6.996;2023-07-20T12:04:51;24.70;79.30
46976;DHT22;32724;51.094;6.996;2023-07-20T12:07:20;24.70;79.20
46976;DHT22;32724;51.094;6.996;2023-07-20T12:12:48;24.70;77.40
46976;DHT22;32724;51.094;6.996;2023-07-20T12:15:19;24.60;78.20
46976;DHT22;32724;51.094;6.996;2023-07-20T12:17:45;24.50;78.10
46976;DHT22;32724;51.094;6.996;2023-07-20T12:20:11;24.60;79.80
46976;DHT22;32724;51.094;6.996;2023-07-20T12:22:40;24.70;78.60
46976;DHT22;32724;51.094;6.996;2023-07-20T12:25:06;24.80;77.20
46976;DHT22;32724;51.094;6.996;2023-07-20T12:27:35;24.90;77.40
46976;DHT22;32724;51.094;6.996;2023-07-20T12:30:00;24.80;77.00
46976;DHT22;32724;51.094;6.996;2023-07-20T12:32:26;24.50;75.50
46976;DHT22;32724;51.094;6.996;2023-07-20T12:34:51;24.60;76.60
46976;DHT22;32724;51.094;6.996;2023-07-20T12:37:17;24.80;75.60
46976;DHT22;32724;51.094;6.996;2023-07-20T12:39:43;24.90;76.50
46976;DHT22;32724;51.094;6.996;2023-07-20T12:42:12;25.00;76.80
46976;DHT22;32724;51.094;6.996;2023-07-20T12:44:37;25.20;76.70
46976;DHT22;32724;51.094;6.996;2023-07-20T12:47:03;25.50;77.30
46976;DHT22;32724;51.094;6.996;2023-07-20T12:49:28;25.40;72.50
46976;DHT22;32724;51.094;6.996;2023-07-20T12:51:54;24.90;73.10
46976;DHT22;32724;51.094;6.996;2023-07-20T12:54:19;24.80;74.20
46976;DHT22;32724;51.094;6.996;2023-07-20T12:56:45;24.90;74.80
46976;DHT22;32724;51.094;6.996;2023-07-20T12:59:10;25.00;75.50
46976;DHT22;32724;51.094;6.996;2023-07-20T13:01:36;25.10;75.30
46976;DHT22;32724;51.094;6.996;2023-07-20T13:04:03;25.10;75.10
46976;DHT22;32724;51.094;6.996;2023-07-20T13:06:28;24.80;75.20
46976;DHT22;32724;51.094;6.996;2023-07-20T13:08:54;24.60;76.10
46976;DHT22;32724;51.094;6.996;2023-07-20T13:11:21;24.50;75.50
46976;DHT22;32724;51.094;6.996;2023-07-20T13:13:47;24.30;75.90
46976;DHT22;32724;51.094;6.996;2023-07-20T13:16:13;24.10;77.00
46976;DHT22;32724;51.094;6.996;2023-07-20T13:18:40;24.00;77.50
46976;DHT22;32724;51.094;6.996;2023-07-20T13:21:05;23.90;77.40
46976;DHT22;32724;51.094;6.996;2023-07-20T13:23:36;23.90;78.30
46976;DHT22;32724;51.094;6.996;2023-07-20T13:26:01;24.00;78.00
46976;DHT22;32724;51.094;6.996;2023-07-20T13:28:27;24.20;76.70
46976;DHT22;32724;51.094;6.996;2023-07-20T13:30:52;24.20;75.60
46976;DHT22;32724;51.094;6.996;2023-07-20T13:33:17;24.20;75.10
46976;DHT22;32724;51.094;6.996;2023-07-20T13:35:43;24.30;77.20
46976;DHT22;32724;51.094;6.996;2023-07-20T13:38:09;24.50;76.10
46976;DHT22;32724;51.094;6.996;2023-07-20T13:40:34;24.50;76.00
46976;DHT22;32724;51.094;6.996;2023-07-20T13:43:00;24.60;77.00
46976;DHT22;32724;51.094;6.996;2023-07-20T13:45:26;24.70;74.50
46976;DHT22;32724;51.094;6.996;2023-07-20T13:47:51;24.60;74.90
46976;DHT22;32724;51.094;6.996;2023-07-20T13:50:17;24.70;75.20
46976;DHT22;32724;51.094;6.996;2023-07-20T13:52:42;24.90;77.10
46976;DHT22;32724;51.094;6.996;2023-07-20T13:55:08;25.00;74.60
46976;DHT22;32724;51.094;6.996;2023-07-20T13:57:33;25.20;77.20
46976;DHT22;32724;51.094;6.996;2023-07-20T13:59:59;25.40;75.10
46976;DHT22;32724;51.094;6.996;2023-07-20T14:02:26;25.60;74.00
46976;DHT22;32724;51.094;6.996;2023-07-20T14:04:51;25.80;73.60
46976;DHT22;32724;51.094;6.996;2023-07-20T14:07:20;25.90;71.70
46976;DHT22;32724;51.094;6.996;2023-07-20T14:09:45;25.90;72.10
46976;DHT22;32724;51.094;6.996;2023-07-20T14:12:10;26.00;71.90
46976;DHT22;32724;51.094;6.996;2023-07-20T14:14:39;25.90;70.30
46976;DHT22;32724;51.094;6.996;2023-07-20T14:17:06;25.60;71.20
46976;DHT22;32724;51.094;6.996;2023-07-20T14:19:31;25.40;71.00
46976;DHT22;32724;51.094;6.996;2023-07-20T14:21:57;25.50;70.70
46976;DHT22;32724;51.094;6.996;2023-07-20T14:24:25;25.40;71.30
46976;DHT22;32724;51.094;6.996;2023-07-20T14:26:50;25.40;71.20
46976;DHT22;32724;51.094;6.996;2023-07-20T14:29:16;25.40;70.30
46976;DHT22;32724;51.094;6.996;2023-07-20T14:31:43;25.20;72.10
46976;DHT22;32724;51.094;6.996;2023-07-20T14:34:09;25.30;72.60
46976;DHT22;32724;51.094;6.996;2023-07-20T14:36:34;25.30;71.30
46976;DHT22;32724;51.094;6.996;2023-07-20T14:38:59;24.90;72.30
46976;DHT22;32724;51.094;6.996;2023-07-20T14:41:25;24.50;74.30
46976;DHT22;32724;51.094;6.996;2023-07-20T14:43:51;24.20;75.80
46976;DHT22;32724;51.094;6.996;2023-07-20T14:46:17;24.00;77.10
46976;DHT22;32724;51.094;6.996;2023-07-20T14:48:42;23.30;79.50
46976;DHT22;32724;51.094;6.996;2023-07-20T14:51:08;22.70;80.10
46976;DHT22;32724;51.094;6.996;2023-07-20T14:53:33;22.40;81.10
46976;DHT22;32724;51.094;6.996;2023-07-20T14:56:02;22.10;84.00
46976;DHT22;32724;51.094;6.996;2023-07-20T14:58:28;22.00;82.70
46976;DHT22;32724;51.094;6.996;2023-07-20T15:00:53;22.20;82.60
46976;DHT22;32724;51.094;6.996;2023-07-20T15:03:18;22.50;80.70
46976;DHT22;32724;51.094;6.996;2023-07-20T15:05:44;22.90;80.50
46976;DHT22;32724;51.094;6.996;2023-07-20T15:08:09;23.10;79.70
46976;DHT22;32724;51.094;6.996;2023-07-20T15:10:35;23.40;78.00
46976;DHT22;32724;51.094;6.996;2023-07-20T15:13:00;23.60;77.20
46976;DHT22;32724;51.094;6.996;2023-07-20T15:15:26;23.40;77.20
46976;DHT22;32724;51.094;6.996;2023-07-20T15:17:51;23.20;77.80
46976;DHT22;32724;51.094;6.996;2023-07-20T15:20:18;23.10;78.00
46976;DHT22;32724;51.094;6.996;2023-07-20T15:22:43;23.10;78.00
46976;DHT22;32724;51.094;6.996;2023-07-20T15:25:09;23.10;78.90
46976;DHT22;32724;51.094;6.996;2023-07-20T15:27:37;23.10;78.10
46976;DHT22;32724;51.094;6.996;2023-07-20T15:30:03;23.20;77.90
46976;DHT22;32724;51.094;6.996;2023-07-20T15:32:29;23.30;78.00
46976;DHT22;32724;51.094;6.996;2023-07-20T15:34:54;23.40;77.90
46976;DHT22;32724;51.094;6.996;2023-07-20T15:37:20;23.40;77.60
46976;DHT22;32724;51.094;6.996;2023-07-20T15:39:48;23.40;77.00
46976;DHT22;32724;51.094;6.996;2023-07-20T15:42:14;23.50;77.00
46976;DHT22;32724;51.094;6.996;2023-07-20T15:44:40;23.50;76.40
46976;DHT22;32724;51.094;6.996;2023-07-20T15:47:05;23.50;76.50